Time;durP1;ratioP1;P1;durP2;ratioP2;P2;SDS_P1;SDS_P2;PMS_P1;PMS_P2;Temp;Humidity;BMP_temperature;BMP_pressure;BME280_temperature;BME280_humidity;BME280_pressure;Samples;Min_cycle;Max_cycle;Signal;HPM_P1;HPM_P2
2022/09/08 00:02:16;;;;;;;3.03;2.83;;;18.10;74.30;;;;;;5054133;28;20645;-77
2022/09/08 00:04:42;;;;;;;2.95;2.75;;;18.10;74.00;;;;;;5052224;28;20184;-76
2022/09/08 00:07:08;;;;;;;3.25;3.03;;;18.10;74.00;;;;;;5055216;28;20214;-77
2022/09/08 00:09:35;;;;;;;2.65;2.55;;;18.10;74.20;;;;;;5056754;28;20205;-77
2022/09/08 00:12:01;;;;;;;8.23;3.10;;;18.10;74.20;;;;;;5048744;28;20187;-77
2022/09/08 00:14:29;;;;;;;2.50;2.40;;;18.10;74.40;;;;;;5052031;28;20171;-77
2022/09/08 00:16:55;;;;;;;2.67;2.58;;;18.10;74.50;;;;;;5056423;28;20191;-78
2022/09/08 00:19:22;;;;;;;3.20;3.00;;;18.10;74.60;;;;;;5056274;28;20183;-77
2022/09/08 00:21:47;;;;;;;2.75;2.65;;;18.00;74.30;;;;;;5054223;28;20183;-77
2022/09/08 00:24:13;;;;;;;3.13;2.85;;;18.00;74.60;;;;;;5054049;28;20206;-77
2022/09/08 00:26:39;;;;;;;2.67;2.58;;;18.00;74.50;;;;;;5053990;28;20974;-78
2022/09/08 00:29:04;;;;;;;3.78;2.90;;;18.00;74.50;;;;;;5058149;28;20183;-77
2022/09/08 00:31:30;;;;;;;2.63;2.53;;;17.90;74.80;;;;;;5053855;28;20195;-77
2022/09/08 00:33:56;;;;;;;2.60;2.50;;;17.90;74.90;;;;;;5055818;28;20179;-77
2022/09/08 00:36:21;;;;;;;2.40;2.33;;;17.90;75.40;;;;;;5053428;28;20187;-77
2022/09/08 00:38:52;;;;;;;3.75;2.38;;;17.90;75.40;;;;;;5055807;28;20190;-77
2022/09/08 00:41:20;;;;;;;3.22;3.10;;;17.90;75.00;;;;;;5051694;28;20187;-77
2022/09/08 00:43:49;;;;;;;2.67;2.60;;;17.80;75.10;;;;;;5053642;28;20278;-77
2022/09/08 00:46:35;;;;;;;2.60;2.60;;;17.80;74.80;;;;;;5052167;28;20184;-77
2022/09/08 00:49:10;;;;;;;2.42;2.30;;;17.80;74.50;;;;;;5052052;28;20653;-77
2022/09/08 00:51:39;;;;;;;2.20;2.20;;;17.80;74.60;;;;;;5051717;28;20187;-78
2022/09/08 00:54:05;;;;;;;3.83;2.30;;;17.70;75.10;;;;;;5055228;28;20184;-77
2022/09/08 00:56:32;;;;;;;2.13;2.03;;;17.70;76.20;;;;;;5051153;28;20222;-77
2022/09/08 00:59:00;;;;;;;2.90;2.70;;;17.70;77.00;;;;;;5054208;28;20248;-78
2022/09/08 01:01:26;;;;;;;2.90;2.70;;;17.70;76.40;;;;;;5052842;28;21473;-77
2022/09/08 01:03:52;;;;;;;2.92;2.83;;;17.60;77.10;;;;;;5051398;28;20262;-77
2022/09/08 01:14:59;;;;;;;2.97;2.80;;;17.40;75.90;;;;;;5057405;28;20257;-77
2022/09/08 01:17:28;;;;;;;2.75;2.65;;;17.40;76.60;;;;;;5053481;28;20188;-77
2022/09/08 01:19:55;;;;;;;4.72;3.28;;;17.40;77.40;;;;;;5053359;28;20179;-76
2022/09/08 01:22:20;;;;;;;2.45;2.35;;;17.40;78.20;;;;;;5047967;28;20188;-77
2022/09/08 01:25:04;;;;;;;2.70;2.60;;;17.30;76.50;;;;;;5051576;28;20190;-77
2022/09/08 01:27:31;;;;;;;3.08;2.50;;;17.20;76.50;;;;;;5051846;28;20574;-77
2022/09/08 01:30:03;;;;;;;2.50;2.40;;;17.20;75.90;;;;;;5052940;28;20599;-77
2022/09/08 01:32:33;;;;;;;2.80;2.70;;;17.20;77.30;;;;;;5050904;28;20642;-77
2022/09/08 01:34:59;;;;;;;2.78;2.65;;;17.10;77.50;;;;;;5054267;28;20186;-77
2022/09/08 01:37:25;;;;;;;2.92;2.70;;;17.10;77.10;;;;;;5053516;28;20183;-77
2022/09/08 01:39:51;;;;;;;2.50;2.40;;;17.10;76.60;;;;;;5058367;28;20857;-77
2022/09/08 01:42:16;;;;;;;2.47;2.38;;;17.10;77.00;;;;;;5052799;28;20702;-76
2022/09/08 01:44:45;;;;;;;2.40;2.30;;;17.10;77.30;;;;;;5050781;28;20199;-77
2022/09/08 01:47:12;;;;;;;2.65;2.35;;;17.10;78.00;;;;;;5051629;28;20219;-77
2022/09/08 01:49:37;;;;;;;2.70;2.60;;;17.10;77.50;;;;;;5051891;28;20183;-77
2022/09/08 01:52:03;;;;;;;2.58;2.38;;;17.00;77.50;;;;;;5054684;28;20704;-77
2022/09/08 01:54:29;;;;;;;2.38;2.38;;;17.00;77.60;;;;;;5053047;28;20622;-77
2022/09/08 01:56:56;;;;;;;2.65;2.60;;;17.00;77.20;;;;;;5052569;28;20274;-77
2022/09/08 01:59:22;;;;;;;3.80;2.42;;;17.00;78.90;;;;;;5055241;28;20179;-77
2022/09/08 02:01:48;;;;;;;2.30;2.30;;;17.00;78.80;;;;;;5052773;28;20212;-78
2022/09/08 02:04:13;;;;;;;3.00;2.83;;;17.00;78.80;;;;;;5050913;28;20613;-77
2022/09/08 02:06:39;;;;;;;3.17;2.80;;;17.00;79.60;;;;;;5057194;28;20208;-77
2022/09/08 02:09:05;;;;;;;3.17;2.97;;;16.90;79.00;;;;;;5056224;28;20205;-77
2022/09/08 02:11:31;;;;;;;3.13;2.92;;;17.00;78.90;;;;;;5052766;28;20753;-77
2022/09/08 02:13:58;;;;;;;3.13;3.03;;;16.90;79.10;;;;;;5049948;28;20262;-77
2022/09/08 02:16:24;;;;;;;2.95;2.70;;;16.90;78.70;;;;;;5052479;28;20550;-78
2022/09/08 02:18:53;;;;;;;2.72;2.60;;;16.90;78.70;;;;;;5058616;28;20187;-77
2022/09/08 02:21:20;;;;;;;2.58;2.47;;;16.90;78.30;;;;;;5054970;28;20695;-77
2022/09/08 02:23:48;;;;;;;3.20;3.10;;;16.80;78.20;;;;;;5055138;28;20301;-76
2022/09/08 02:26:22;;;;;;;2.60;2.50;;;16.80;78.40;;;;;;5057123;28;20180;-77
2022/09/08 02:28:48;;;;;;;2.83;2.63;;;16.80;78.70;;;;;;5052406;28;20193;-77
2022/09/08 02:31:14;;;;;;;2.45;2.38;;;16.80;79.00;;;;;;5057233;28;20218;-78
2022/09/08 02:33:40;;;;;;;2.65;2.55;;;16.80;78.90;;;;;;5055463;28;20187;-77
2022/09/08 02:36:06;;;;;;;3.33;3.13;;;16.80;80.30;;;;;;5055205;28;20217;-77
2022/09/08 02:38:32;;;;;;;3.17;3.08;;;16.80;80.60;;;;;;5056871;28;20205;-77
2022/09/08 02:41:00;;;;;;;2.50;2.40;;;16.80;79.80;;;;;;5053320;28;20191;-77
2022/09/08 02:43:26;;;;;;;2.80;2.60;;;16.70;79.10;;;;;;5052974;28;20199;-77
2022/09/08 02:45:52;;;;;;;2.83;2.72;;;16.70;79.10;;;;;;5056036;28;20180;-77
2022/09/08 02:48:18;;;;;;;2.95;2.85;;;16.60;79.00;;;;;;5056883;28;20337;-77
2022/09/08 02:50:44;;;;;;;2.97;2.78;;;16.60;79.00;;;;;;5059636;28;20254;-77
2022/09/08 02:53:09;;;;;;;2.97;2.83;;;16.60;80.50;;;;;;5058870;28;20218;-77
2022/09/08 02:55:39;;;;;;;3.10;2.83;;;16.60;80.00;;;;;;5060615;28;20258;-77
2022/09/08 02:58:07;;;;;;;2.80;2.70;;;16.60;79.90;;;;;;5059820;28;20688;-77
2022/09/08 03:00:34;;;;;;;2.63;2.53;;;16.60;81.40;;;;;;5053945;28;20179;-77
2022/09/08 03:02:59;;;;;;;3.00;2.90;;;16.60;81.70;;;;;;5059386;28;20260;-76
2022/09/08 03:05:25;;;;;;;3.30;3.00;;;16.50;80.60;;;;;;5054982;28;20614;-77
2022/09/08 03:07:51;;;;;;;2.95;2.83;;;16.50;81.00;;;;;;5055306;28;20253;-77
2022/09/08 03:10:21;;;;;;;2.75;2.65;;;16.40;81.10;;;;;;5053003;28;20180;-77
2022/09/08 03:12:47;;;;;;;3.53;2.70;;;16.40;81.40;;;;;;5054711;28;20237;-77
2022/09/08 03:15:12;;;;;;;3.15;2.95;;;16.30;80.80;;;;;;5056590;28;20187;-76
2022/09/08 03:17:38;;;;;;;2.83;2.72;;;16.30;80.50;;;;;;5054873;28;20219;-77
2022/09/08 03:20:04;;;;;;;2.90;2.80;;;16.20;80.30;;;;;;5058059;28;20261;-77
2022/09/08 03:22:30;;;;;;;2.70;2.60;;;16.20;81.10;;;;;;5052415;28;20670;-77
2022/09/08 03:24:56;;;;;;;3.72;3.42;;;16.20;81.20;;;;;;5056676;28;20190;-77
2022/09/08 03:27:22;;;;;;;4.22;3.15;;;16.20;81.80;;;;;;5056611;28;20214;-77
2022/09/08 03:29:48;;;;;;;2.85;2.70;;;16.20;82.00;;;;;;5060222;28;20209;-77
2022/09/08 03:32:13;;;;;;;3.05;2.83;;;16.20;81.70;;;;;;5059397;28;20241;-77
2022/09/08 03:34:39;;;;;;;4.32;2.70;;;16.20;81.80;;;;;;5062569;28;20881;-77
2022/09/08 03:37:05;;;;;;;3.03;2.90;;;16.20;81.80;;;;;;5055471;28;20217;-77
2022/09/08 03:39:30;;;;;;;4.40;3.03;;;16.20;82.10;;;;;;5057960;28;20179;-77
2022/09/08 03:41:56;;;;;;;3.40;3.10;;;16.20;82.00;;;;;;5058542;28;20262;-77
2022/09/08 03:44:22;;;;;;;3.42;3.20;;;16.20;82.20;;;;;;5051556;28;20750;-77
2022/09/08 03:46:47;;;;;;;3.58;3.13;;;16.10;82.40;;;;;;5056797;28;20219;-77
2022/09/08 03:49:13;;;;;;;2.90;2.70;;;16.10;81.90;;;;;;5056651;28;20215;-77
2022/09/08 03:51:39;;;;;;;2.95;2.85;;;16.10;81.60;;;;;;5050962;28;20176;-77
2022/09/08 03:57:05;;;;;;;3.15;2.95;;;16.00;81.90;;;;;;5024556;28;20230;-77
2022/09/08 03:59:31;;;;;;;3.03;2.83;;;16.00;81.10;;;;;;5023944;28;20192;-77
2022/09/08 04:01:56;;;;;;;2.97;2.83;;;15.90;80.80;;;;;;5023904;28;20180;-77
2022/09/08 04:04:23;;;;;;;2.75;2.65;;;15.90;80.70;;;;;;5023637;28;20188;-77
2022/09/08 04:06:49;;;;;;;3.10;2.90;;;16.00;81.90;;;;;;5006904;28;20303;-76
2022/09/08 04:09:16;;;;;;;3.33;3.22;;;16.00;82.20;;;;;;5024066;28;20184;-76
2022/09/08 04:11:42;;;;;;;5.60;2.65;;;16.00;81.90;;;;;;5023933;28;20644;-77
2022/09/08 04:14:08;;;;;;;2.40;2.38;;;15.90;81.90;;;;;;5024093;28;20212;-77
2022/09/08 04:16:34;;;;;;;2.50;2.45;;;15.90;81.50;;;;;;5023714;28;20247;-77
2022/09/08 04:19:00;;;;;;;3.05;2.95;;;15.90;81.60;;;;;;5006794;28;20193;-77
2022/09/08 04:21:26;;;;;;;2.67;2.58;;;15.90;81.90;;;;;;5023841;28;20188;-77
2022/09/08 04:23:52;;;;;;;4.78;2.83;;;15.90;81.50;;;;;;5023640;28;20200;-77
2022/09/08 04:26:18;;;;;;;2.60;2.50;;;15.90;80.90;;;;;;5023842;28;20188;-77
2022/09/08 04:28:44;;;;;;;2.72;2.63;;;15.90;81.30;;;;;;5023642;28;20180;-77
2022/09/08 04:31:12;;;;;;;2.53;2.42;;;15.90;81.10;;;;;;5039975;28;20687;-76
2022/09/08 04:33:38;;;;;;;2.95;2.72;;;15.90;81.80;;;;;;5052593;28;20180;-77
2022/09/08 04:36:09;;;;;;;2.70;2.60;;;15.90;82.00;;;;;;5054695;28;20239;-77
2022/09/08 04:38:35;;;;;;;2.92;2.72;;;15.90;80.80;;;;;;5052208;28;20183;-77
2022/09/08 04:41:06;;;;;;;3.03;2.92;;;15.90;81.00;;;;;;5057025;28;20194;-77
2022/09/08 04:43:32;;;;;;;2.90;2.80;;;15.90;81.60;;;;;;5055186;28;20192;-77
2022/09/08 04:46:10;;;;;;;4.20;3.00;;;16.00;82.20;;;;;;5057764;28;20225;-77
2022/09/08 04:48:38;;;;;;;3.60;3.35;;;16.00;81.40;;;;;;5050825;28;20699;-77
2022/09/08 04:51:04;;;;;;;3.58;3.25;;;16.00;82.10;;;;;;5055816;28;20191;-77
2022/09/08 04:53:31;;;;;;;4.70;2.97;;;16.00;82.00;;;;;;5055624;28;20266;-77
2022/09/08 04:55:57;;;;;;;3.15;2.90;;;16.00;81.70;;;;;;5053823;28;20182;-77
2022/09/08 04:58:23;;;;;;;2.67;2.47;;;16.00;81.60;;;;;;5052202;28;20188;-77
2022/09/08 05:00:50;;;;;;;2.45;2.25;;;16.00;81.30;;;;;;5056626;28;20228;-77
2022/09/08 05:03:15;;;;;;;3.22;2.95;;;16.00;81.30;;;;;;5047697;28;20180;-77
2022/09/08 05:05:41;;;;;;;2.80;2.70;;;16.10;81.60;;;;;;5058098;28;20237;-77
2022/09/08 05:08:07;;;;;;;3.15;2.95;;;16.10;81.80;;;;;;5053959;28;20216;-77
2022/09/08 05:10:33;;;;;;;5.68;2.90;;;16.10;81.20;;;;;;5054930;28;20331;-77
2022/09/08 05:13:00;;;;;;;2.88;2.70;;;16.10;81.00;;;;;;5048893;28;20214;-76
2022/09/08 05:15:26;;;;;;;3.17;3.08;;;16.20;81.50;;;;;;5051583;28;20179;-77
2022/09/08 05:17:54;;;;;;;2.67;2.58;;;16.20;81.50;;;;;;5055194;28;20210;-77
2022/09/08 05:20:20;;;;;;;4.78;3.13;;;16.30;81.70;;;;;;5052299;28;20274;-77
2022/09/08 05:22:45;;;;;;;3.72;3.03;;;16.30;81.10;;;;;;5052586;28;20267;-77
2022/09/08 05:25:11;;;;;;;3.40;3.10;;;16.30;80.90;;;;;;5056247;28;20224;-77
2022/09/08 05:27:37;;;;;;;2.25;2.25;;;16.30;80.90;;;;;;5052499;28;20949;-77
2022/09/08 05:30:04;;;;;;;2.85;2.58;;;16.40;81.00;;;;;;5053689;28;20187;-77
2022/09/08 05:32:29;;;;;;;3.22;3.08;;;16.40;81.00;;;;;;5053164;28;20179;-77
2022/09/08 05:34:55;;;;;;;2.53;2.42;;;16.50;80.70;;;;;;5053082;28;20238;-77
2022/09/08 05:37:21;;;;;;;2.45;2.35;;;16.50;80.80;;;;;;5051513;28;20188;-78
2022/09/08 05:39:46;;;;;;;2.30;2.28;;;16.60;80.60;;;;;;5056699;28;20230;-77
2022/09/08 05:42:12;;;;;;;2.58;2.47;;;16.60;80.60;;;;;;5051732;28;20190;-77
2022/09/08 05:44:38;;;;;;;6.57;2.95;;;16.70;80.30;;;;;;5049877;28;20196;-77
2022/09/08 05:47:04;;;;;;;2.72;2.55;;;16.70;80.30;;;;;;5054263;28;20213;-77
2022/09/08 05:49:31;;;;;;;2.45;2.35;;;16.80;80.30;;;;;;5055830;28;20236;-77
2022/09/08 05:51:57;;;;;;;2.90;2.50;;;16.80;80.30;;;;;;5053294;28;20187;-76
2022/09/08 05:54:24;;;;;;;2.30;2.20;;;16.90;80.10;;;;;;5053349;28;20228;-76
2022/09/08 05:56:50;;;;;;;3.33;2.53;;;16.90;80.10;;;;;;5053074;28;20186;-77
2022/09/08 05:59:16;;;;;;;2.42;2.28;;;17.00;79.90;;;;;;5046897;28;20187;-78
2022/09/08 06:01:41;;;;;;;2.50;2.40;;;17.10;79.90;;;;;;5050533;28;20190;-77
2022/09/08 06:04:07;;;;;;;2.65;2.55;;;17.10;79.70;;;;;;5045839;28;20244;-77
2022/09/08 06:06:33;;;;;;;3.05;2.85;;;17.20;79.60;;;;;;5048932;28;20184;-77
2022/09/08 06:09:00;;;;;;;2.72;2.53;;;17.20;79.30;;;;;;5052620;28;20325;-77
2022/09/08 06:11:28;;;;;;;2.65;2.58;;;17.30;79.30;;;;;;5055326;28;20179;-77
2022/09/08 06:13:55;;;;;;;2.72;2.63;;;17.30;79.20;;;;;;5052086;28;20178;-77
2022/09/08 06:16:21;;;;;;;2.50;2.40;;;17.30;79.10;;;;;;5050297;28;20176;-77
2022/09/08 06:18:47;;;;;;;2.33;2.28;;;17.40;79.20;;;;;;5053448;28;20187;-77
2022/09/08 06:21:20;;;;;;;2.40;2.25;;;17.50;79.10;;;;;;5053379;28;20574;-77
2022/09/08 06:23:51;;;;;;;2.72;2.55;;;17.50;78.80;;;;;;5052814;28;20258;-77
2022/09/08 06:26:48;;;;;;;3.10;3.00;;;17.60;78.90;;;;;;5055441;28;20187;-77
2022/09/08 06:29:17;;;;;;;2.67;2.25;;;17.70;79.20;;;;;;5020156;28;20197;-77
2022/09/08 06:31:57;;;;;;;2.60;2.50;;;17.80;78.30;;;;;;5020342;28;20188;-76
2022/09/08 06:34:29;;;;;;;2.05;2.05;;;17.80;78.00;;;;;;5020728;28;20210;-77
2022/09/08 06:36:58;;;;;;;2.42;2.33;;;17.90;78.40;;;;;;5019626;28;20733;-77
2022/09/08 06:39:30;;;;;;;2.45;2.25;;;17.90;78.40;;;;;;5021355;28;20199;-77
2022/09/08 06:42:09;;;;;;;1.95;1.85;;;18.00;77.80;;;;;;5020894;28;20188;-78
2022/09/08 06:44:38;;;;;;;2.92;2.83;;;18.00;77.80;;;;;;5019258;28;20696;-77
2022/09/08 06:47:10;;;;;;;4.70;3.55;;;18.10;77.70;;;;;;5021129;28;20716;-76
2022/09/08 06:49:36;;;;;;;3.65;3.47;;;18.20;77.30;;;;;;5020963;28;20199;-77
2022/09/08 06:52:17;;;;;;;4.10;3.75;;;18.20;77.30;;;;;;5020953;28;20210;-77
2022/09/08 06:54:59;;;;;;;3.83;3.45;;;18.30;77.40;;;;;;5020625;28;20267;-77
2022/09/08 06:57:44;;;;;;;2.90;2.80;;;18.40;76.80;;;;;;5021742;28;20272;-77
2022/09/08 07:00:22;;;;;;;3.33;3.05;;;18.50;76.30;;;;;;5021041;28;20196;-77
2022/09/08 07:03:10;;;;;;;3.17;2.97;;;18.50;76.90;;;;;;5022403;28;20203;-77
2022/09/08 07:06:08;;;;;;;7.50;3.45;;;18.60;77.30;;;;;;4990013;28;20193;-77
2022/09/08 07:08:50;;;;;;;4.75;3.05;;;18.80;76.50;;;;;;4965953;28;20618;-77
2022/09/08 07:11:25;;;;;;;3.53;3.30;;;18.80;77.20;;;;;;4966461;28;20300;-77
2022/09/08 07:14:17;;;;;;;3.90;3.70;;;19.00;76.40;;;;;;4965910;28;20281;-77
2022/09/08 07:16:45;;;;;;;3.90;3.63;;;19.10;76.20;;;;;;4966008;28;20202;-77
2022/09/08 07:19:22;;;;;;;3.10;3.00;;;19.20;76.40;;;;;;4966471;28;20288;-77
2022/09/08 07:22:00;;;;;;;4.03;3.72;;;19.30;76.00;;;;;;4965094;28;20861;-77
2022/09/08 07:24:38;;;;;;;4.32;3.95;;;19.50;76.00;;;;;;4964524;28;20210;-77
2022/09/08 07:27:07;;;;;;;3.63;3.38;;;19.60;75.50;;;;;;4966259;28;20237;-77
2022/09/08 07:29:42;;;;;;;5.05;3.40;;;19.70;74.20;;;;;;4964695;28;20218;-76
2022/09/08 07:32:31;;;;;;;3.28;3.17;;;19.80;74.20;;;;;;4965733;28;20194;-77
2022/09/08 07:35:11;;;;;;;3.47;3.17;;;20.00;74.10;;;;;;4965944;28;20186;-77
2022/09/08 07:37:49;;;;;;;3.72;3.38;;;20.10;74.20;;;;;;4965829;28;20221;-76
2022/09/08 07:40:17;;;;;;;3.17;2.97;;;20.30;74.50;;;;;;4965191;28;20257;-76
2022/09/08 07:42:54;;;;;;;3.03;2.83;;;20.50;74.40;;;;;;4985053;28;20197;-76
2022/09/08 07:45:35;;;;;;;3.90;3.60;;;20.70;74.40;;;;;;5022717;28;20195;-76
2022/09/08 07:48:24;;;;;;;3.55;3.25;;;21.00;72.80;;;;;;5054312;28;20218;-76
2022/09/08 07:51:12;;;;;;;3.72;3.53;;;21.30;72.60;;;;;;5051800;28;20190;-77
2022/09/08 07:53:57;;;;;;;3.35;3.20;;;21.50;71.20;;;;;;5051884;28;20191;-77
2022/09/08 07:56:34;;;;;;;3.35;3.15;;;21.70;72.20;;;;;;5048949;28;20187;-78
2022/09/08 07:59:12;;;;;;;5.45;3.53;;;21.90;70.80;;;;;;5059048;28;20182;-77
2022/09/08 08:02:01;;;;;;;3.10;3.00;;;22.00;69.70;;;;;;5050674;28;20707;-77
2022/09/08 08:04:36;;;;;;;4.53;4.13;;;22.10;69.80;;;;;;5056948;28;20644;-77
2022/09/08 08:07:07;;;;;;;6.93;5.15;;;22.30;70.70;;;;;;5044523;28;20219;-77
2022/09/08 08:09:35;;;;;;;5.18;3.40;;;22.50;71.60;;;;;;5055745;28;20280;-77
2022/09/08 08:12:36;;;;;;;5.63;3.15;;;22.70;70.50;;;;;;5057768;28;20179;-77
2022/09/08 08:15:32;;;;;;;3.35;3.20;;;22.90;70.90;;;;;;5023649;28;20192;-78
2022/09/08 08:18:30;;;;;;;2.97;2.88;;;23.20;69.10;;;;;;5022092;28;20713;-77
2022/09/08 08:21:00;;;;;;;2.83;2.72;;;23.40;68.70;;;;;;4964601;28;20367;-77
2022/09/08 08:23:36;;;;;;;4.15;3.42;;;23.70;67.80;;;;;;4964947;28;20234;-77
2022/09/08 08:26:15;;;;;;;3.38;3.10;;;23.90;67.40;;;;;;4964018;28;20229;-77
2022/09/08 08:28:45;;;;;;;3.40;3.20;;;24.10;66.90;;;;;;4963509;28;20229;-77
2022/09/08 08:31:32;;;;;;;3.03;2.92;;;24.40;66.80;;;;;;4964880;28;20585;-77
2022/09/08 08:34:16;;;;;;;3.05;2.85;;;24.60;64.50;;;;;;4964723;28;20197;-76
2022/09/08 08:36:45;;;;;;;3.28;2.92;;;24.80;64.80;;;;;;4964831;28;20224;-75
2022/09/08 08:39:24;;;;;;;6.30;2.90;;;25.00;64.60;;;;;;4964030;28;20586;-77
2022/09/08 08:42:15;;;;;;;3.08;2.97;;;25.40;63.90;;;;;;4948445;28;20190;-75
2022/09/08 08:44:51;;;;;;;2.83;2.70;;;25.70;62.90;;;;;;4965096;28;20211;-78
2022/09/08 08:47:50;;;;;;;3.10;3.00;;;26.10;63.00;;;;;;4964295;28;20270;-77
2022/09/08 08:50:35;;;;;;;3.38;3.17;;;26.40;62.00;;;;;;4967102;28;20268;-78
2022/09/08 08:53:33;;;;;;;2.95;2.85;;;26.70;60.50;;;;;;5013266;28;20196;-77
2022/09/08 08:56:20;;;;;;;2.60;2.60;;;27.20;60.50;;;;;;5012617;28;20292;-77
2022/09/08 08:59:04;;;;;;;2.88;2.85;;;27.80;58.50;;;;;;5046018;28;20194;-76
2022/09/08 09:01:48;;;;;;;2.83;2.63;;;28.10;59.20;;;;;;5057351;28;20573;-76
2022/09/08 09:04:20;;;;;;;3.13;3.03;;;28.60;59.10;;;;;;5055560;28;20210;-76
2022/09/08 09:06:58;;;;;;;2.65;2.40;;;29.30;59.70;;;;;;5058260;28;20257;-77
2022/09/08 09:09:51;;;;;;;2.70;2.50;;;30.00;58.60;;;;;;5053034;28;20270;-76
2022/09/08 09:12:22;;;;;;;2.83;2.50;;;30.80;55.90;;;;;;5053344;28;20187;-76
2022/09/08 09:15:15;;;;;;;3.10;3.00;;;31.30;55.60;;;;;;5056060;28;20184;-77
2022/09/08 09:17:57;;;;;;;3.25;2.97;;;31.60;55.10;;;;;;5058180;28;20180;-76
2022/09/08 09:20:46;;;;;;;2.47;2.35;;;32.00;56.30;;;;;;5048387;28;20186;-76
2022/09/08 09:23:31;;;;;;;2.17;2.15;;;32.60;54.60;;;;;;5057039;28;20228;-76
2022/09/08 09:26:04;;;;;;;5.28;2.65;;;33.20;54.70;;;;;;5049683;28;20187;-76
2022/09/08 09:29:03;;;;;;;2.70;2.60;;;33.90;53.60;;;;;;5054279;28;20741;-77
2022/09/08 09:32:04;;;;;;;2.47;2.38;;;34.60;50.50;;;;;;5052278;28;20201;-76
2022/09/08 09:34:36;;;;;;;4.40;2.83;;;35.00;51.00;;;;;;5067321;28;20185;-77
2022/09/08 09:37:39;;;;;;;2.88;2.65;;;35.50;52.20;;;;;;5049092;28;20629;-77
2022/09/08 09:40:11;;;;;;;2.42;2.42;;;36.00;50.40;;;;;;5054400;28;20191;-76
2022/09/08 09:42:43;;;;;;;2.50;2.50;;;36.50;51.70;;;;;;5047562;28;20175;-77
2022/09/08 09:45:46;;;;;;;2.75;2.65;;;37.10;48.90;;;;;;5051044;28;20194;-77
2022/09/08 09:48:28;;;;;;;4.78;2.75;;;37.50;47.60;;;;;;5047174;28;20214;-77
2022/09/08 09:51:15;;;;;;;2.55;2.55;;;37.50;47.00;;;;;;5049329;28;20254;-77
2022/09/08 09:53:58;;;;;;;3.10;3.00;;;37.60;49.60;;;;;;5053707;28;20190;-77
2022/09/08 09:56:42;;;;;;;2.63;2.47;;;37.90;48.30;;;;;;5053934;28;20186;-76
2022/09/08 09:59:45;;;;;;;2.70;2.60;;;38.50;49.00;;;;;;5049685;28;20182;-73
2022/09/08 10:02:41;;;;;;;2.60;2.50;;;39.00;46.00;;;;;;5050557;28;20689;-77
2022/09/08 10:05:18;;;;;;;2.40;2.40;;;39.60;47.90;;;;;;5049523;28;20190;-77
2022/09/08 10:08:07;;;;;;;2.40;2.30;;;40.10;48.90;;;;;;5050402;28;20298;-77
2022/09/08 10:10:44;;;;;;;2.50;2.30;;;40.60;48.30;;;;;;5001120;28;20693;-77
2022/09/08 10:13:22;;;;;;;2.80;2.70;;;41.10;45.00;;;;;;5002534;28;20204;-77
2022/09/08 10:16:13;;;;;;;2.60;2.60;;;41.50;47.90;;;;;;5001626;28;20275;-77
2022/09/08 10:19:00;;;;;;;2.78;2.67;;;41.90;44.70;;;;;;5001335;28;20188;-77
2022/09/08 10:21:34;;;;;;;6.03;2.80;;;42.20;46.60;;;;;;5001805;28;20192;-77
2022/09/08 10:24:21;;;;;;;2.47;2.47;;;42.30;44.50;;;;;;5001656;28;20188;-77
2022/09/08 10:26:50;;;;;;;2.75;2.60;;;42.40;43.90;;;;;;5000753;28;20220;-77
2022/09/08 10:29:31;;;;;;;3.13;2.95;;;42.60;46.30;;;;;;5001039;28;20800;-77
2022/09/08 10:32:24;;;;;;;2.97;2.78;;;42.70;43.30;;;;;;5001283;28;20184;-77
2022/09/08 10:34:50;;;;;;;2.78;2.67;;;42.80;43.20;;;;;;5001474;28;20339;-77
2022/09/08 10:37:15;;;;;;;2.53;2.42;;;42.90;45.20;;;;;;5003781;28;20290;-77
2022/09/08 10:39:49;;;;;;;3.15;3.05;;;43.10;45.20;;;;;;5006983;28;20192;-77
2022/09/08 10:42:39;;;;;;;3.03;2.78;;;43.30;45.90;;;;;;5005471;28;20187;-77
2022/09/08 10:45:37;;;;;;;2.97;2.88;;;43.60;42.80;;;;;;5005123;28;20204;-77
2022/09/08 10:48:14;;;;;;;2.83;2.78;;;43.80;43.10;;;;;;5036821;28;20219;-77
2022/09/08 10:50:50;;;;;;;4.00;3.40;;;44.00;43.20;;;;;;5055664;28;20194;-77
2022/09/08 10:53:40;;;;;;;2.60;2.60;;;44.20;43.40;;;;;;5053808;28;20239;-78
2022/09/08 10:56:26;;;;;;;2.95;2.92;;;44.30;44.10;;;;;;5056965;28;20786;-77
2022/09/08 10:59:11;;;;;;;3.55;3.33;;;44.50;41.10;;;;;;5060255;28;20186;-77
2022/09/08 11:01:55;;;;;;;3.40;3.30;;;44.70;40.40;;;;;;5055249;28;20266;-77
2022/09/08 11:05:03;;;;;;;5.28;3.58;;;44.50;39.80;;;;;;5059318;28;20749;-77
2022/09/08 11:08:13;;;;;;;3.45;3.28;;;44.50;41.30;;;;;;5061100;28;20209;-77
2022/09/08 11:10:44;;;;;;;3.15;3.15;;;44.70;40.20;;;;;;5042909;28;20187;-77
2022/09/08 11:13:25;;;;;;;3.58;3.47;;;44.20;42.70;;;;;;5043437;28;21006;-78
2022/09/08 11:16:28;;;;;;;3.67;3.47;;;43.80;42.80;;;;;;5043473;28;20191;-77
2022/09/08 11:19:20;;;;;;;4.00;3.80;;;43.80;40.20;;;;;;5040505;28;20207;-77
2022/09/08 11:21:58;;;;;;;3.13;2.97;;;43.70;43.50;;;;;;5041537;28;20179;-77
2022/09/08 11:25:17;;;;;;;3.58;3.47;;;43.70;40.10;;;;;;5040415;28;20206;-77
2022/09/08 11:28:00;;;;;;;3.63;3.42;;;43.70;40.30;;;;;;4974822;28;20213;-77
2022/09/08 11:30:36;;;;;;;3.35;3.25;;;43.90;41.00;;;;;;4974779;28;20244;-77
2022/09/08 11:33:39;;;;;;;3.30;3.25;;;44.00;41.10;;;;;;4988049;28;20907;-77
2022/09/08 11:36:33;;;;;;;3.60;3.50;;;44.10;40.10;;;;;;4969797;28;20209;-77
2022/09/08 11:39:13;;;;;;;3.80;3.67;;;44.10;40.20;;;;;;4971669;28;20205;-77
2022/09/08 11:42:09;;;;;;;3.78;3.47;;;44.00;40.00;;;;;;4988387;28;20198;-77
2022/09/08 11:44:49;;;;;;;2.95;2.85;;;43.80;40.10;;;;;;4986734;28;20208;-77
2022/09/08 11:48:02;;;;;;;4.47;3.03;;;43.90;41.00;;;;;;5005589;28;20289;-77
2022/09/08 11:50:44;;;;;;;2.75;2.75;;;44.00;40.00;;;;;;4907600;29;20636;-77
2022/09/08 11:53:30;;;;;;;2.78;2.78;;;44.10;40.80;;;;;;4907333;29;20199;-77
2022/09/08 11:56:13;;;;;;;2.80;2.70;;;44.30;40.40;;;;;;4907585;29;20839;-77
2022/09/08 11:59:16;;;;;;;3.13;2.97;;;44.50;39.80;;;;;;4907075;29;20191;-77
2022/09/08 12:02:19;;;;;;;2.78;2.65;;;44.60;39.20;;;;;;4919845;29;20221;-77
2022/09/08 12:05:30;;;;;;;2.92;2.83;;;44.70;39.50;;;;;;4935000;29;20567;-77
2022/09/08 12:08:22;;;;;;;3.08;3.08;;;44.70;39.40;;;;;;4936335;29;20269;-77
2022/09/08 12:10:59;;;;;;;2.80;2.72;;;44.70;39.90;;;;;;4930761;29;20266;-77
2022/09/08 12:13:37;;;;;;;3.20;3.20;;;44.80;40.60;;;;;;4934817;29;20203;-77
2022/09/08 12:16:21;;;;;;;3.22;3.03;;;44.90;39.80;;;;;;4934423;29;20202;-78
2022/09/08 12:19:04;;;;;;;3.03;3.03;;;45.00;40.20;;;;;;4934173;29;20187;-78
2022/09/08 12:21:32;;;;;;;3.00;2.90;;;45.10;39.90;;;;;;4933091;29;20198;-78
2022/09/08 12:24:04;;;;;;;3.45;3.20;;;45.10;42.00;;;;;;4931988;29;20218;-78
2022/09/08 12:26:42;;;;;;;3.13;3.08;;;45.20;41.90;;;;;;4968427;28;20194;-78
2022/09/08 12:29:39;;;;;;;3.20;3.10;;;44.90;39.50;;;;;;5053041;28;20194;-78
2022/09/08 12:32:32;;;;;;;3.15;3.05;;;44.70;39.60;;;;;;5050998;28;20265;-78
2022/09/08 12:35:21;;;;;;;3.20;3.10;;;44.70;39.80;;;;;;5055000;28;20179;-77
2022/09/08 12:37:57;;;;;;;2.88;2.88;;;44.60;39.70;;;;;;5056519;28;20662;-76
2022/09/08 12:40:35;;;;;;;3.05;2.95;;;44.80;40.40;;;;;;5054542;28;20218;-76
2022/09/08 12:43:21;;;;;;;3.88;3.40;;;44.20;39.30;;;;;;5056478;28;20185;-76
2022/09/08 12:46:14;;;;;;;3.30;3.20;;;43.60;40.10;;;;;;5052845;28;20206;-76
2022/09/08 12:48:45;;;;;;;3.13;3.03;;;43.50;41.20;;;;;;5051937;28;20371;-76
2022/09/08 12:51:19;;;;;;;3.13;3.08;;;43.50;41.40;;;;;;5051639;28;20692;-76
2022/09/08 12:54:18;;;;;;;3.67;3.58;;;43.10;42.00;;;;;;5053435;28;20212;-76
2022/09/08 12:56:52;;;;;;;3.03;2.80;;;42.80;40.80;;;;;;5057084;28;20171;-77
2022/09/08 12:59:27;;;;;;;2.97;2.88;;;42.70;41.30;;;;;;5054065;28;20185;-76
2022/09/08 13:02:15;;;;;;;3.00;2.90;;;42.70;43.30;;;;;;5050329;28;20197;-77
2022/09/08 13:04:44;;;;;;;2.70;2.70;;;42.80;41.10;;;;;;5052536;28;20229;-76
2022/09/08 13:07:45;;;;;;;5.28;2.95;;;42.70;40.80;;;;;;5051118;28;20299;-76
2022/09/08 13:10:10;;;;;;;3.20;3.10;;;42.60;41.00;;;;;;5056372;28;20214;-77
2022/09/08 13:13:05;;;;;;;3.22;3.05;;;42.60;41.90;;;;;;5054079;28;20213;-76
2022/09/08 13:15:39;;;;;;;3.20;3.00;;;42.70;41.50;;;;;;5058706;28;20668;-76
2022/09/08 13:18:07;;;;;;;3.50;3.40;;;42.90;41.60;;;;;;5055891;28;20652;-76
2022/09/08 13:20:42;;;;;;;3.35;3.13;;;42.90;41.40;;;;;;5050632;28;20193;-76
2022/09/08 13:23:11;;;;;;;3.70;3.35;;;42.90;41.70;;;;;;5055179;28;20570;-76
2022/09/08 13:25:52;;;;;;;3.17;2.88;;;43.00;41.30;;;;;;5054265;28;20174;-76
2022/09/08 13:28:43;;;;;;;2.95;2.75;;;43.00;41.10;;;;;;5054683;28;20242;-76
2022/09/08 13:31:43;;;;;;;3.17;3.08;;;43.10;41.40;;;;;;5022271;28;20199;-76
2022/09/08 13:35:00;;;;;;;3.40;3.40;;;43.20;40.60;;;;;;5021989;28;20270;-77
2022/09/08 13:37:39;;;;;;;3.35;3.13;;;43.40;40.60;;;;;;4989921;28;20197;-76
2022/09/08 13:40:55;;;;;;;3.35;3.25;;;43.30;40.90;;;;;;4989946;28;20682;-78
2022/09/08 13:43:48;;;;;;;3.03;3.03;;;42.80;40.70;;;;;;4935046;28;20218;-78